Welcome to our Virtual Airline
Sign-in:

Flight MFC631

  • Submitted By: Doug Linn
  • Departure Airport: Point Baker SPB (KPB)
  • Arrival Airport: Cape Pole SPB (Z71)
  • Aircraft: AC500 (N050AK)
  • Flight Time: 00.33.23
  • Date Submitted: 2018/03/17
  • Route: FOLLOW THE TOUR FP
  • Status: Accepted
Flight Details
Gross Revenue:
(3 load / $ 49.00 per unit
$ 147.00
Fuel Cost:
(50.3488 fuel used @ 5.1 / unit)
$ 256.78

Additional Log Information:

View Log

[19:12] ----- Flight Opened -----
[19:12] Cigar Box - 1.1.2.0
[19:12] FS: Prepar3D V4
[19:12] FSUIPC: v5.122
[19:12] Flight Number: MFC631
[19:12] FS Aircraft: DHC-2A N001MM New Misty Amphibian
[19:12] FS Model: DHC2
[19:12] FS Type: DeHavilland
[19:12] Departure: KPB
[19:12] Arrival: Z71
[19:12] Flight Level: 1500
[19:12] Flight Type: H
[19:12] Passengers: 3
[19:12] FOB: 570 lbs
[19:12] Gate: n/a
[19:12] NOTE: Parking Brake Ignored
[19:12] Crash Detection: Disabled
[19:12] Engines: 1 Piston
[19:12] NOTE: Boarding has started
[19:12] Main Door Closed
[19:12] COM1: 121.90
[19:12] COM2: 127.80
[19:12] Transponder: 0043
[19:12] NAV1: 110.90
[19:12] NAV2: 110.60
[19:12] ADF1: 254.0
[19:12] ADF2: 240.0
[19:12] Navigation Mode: GPS
[19:12] Navigation Mode: GPS
[19:12] Light Data: Navigation ON
[19:12] Light Data: Beacon ON
[19:12] Light Data: Landing lights ON
[19:12] Light Data: Taxi lights ON
[19:12] Light Data: Strobe lights ON
[19:12] Light Data: Instrument lights ON
[19:12] Light Data: Recognition lights ON
[19:12] Light Data: Wing lights ON
[19:12] Light Data: Logo lights ON
[19:12] Light Data: Cabin lights ON
[19:12] Engine 1: Started
[19:12] Flaps: Position 1
[19:12] NOTE: Taxi started
[19:15] Autopilot: Engaged
[19:15] AGL: 6 ft
[19:15] AMSL: 6 ft
[19:15] NOTE: ----- TAKE OFF -----
[19:15] GS: 71 knots
[19:15] TAS: 70 knots
[19:15] IAS: 71 knots
[19:15] VS: 34 fpm
[19:15] FOB: 568 lbs
[19:15] Heading: 249°
[19:15] Pitch: 4°
[19:15] Bank: 0°
[19:15] Aircraft Weight: 4338.01 lbs
[19:15] Nearest Airport: KPB
[19:15] Distance: 0.45 miles
[19:15] Runway: ???
[19:15] Ground Surface: Water
[19:15] Ground Condition: Snow
[19:15] NOTE: Weather Report
[19:15] Wind Heading: 68°
[19:15] Wind Speed: 2 knots
[19:15] OAT: 11° C
[19:15] TAT: 12° C
[19:15] Precipitation: None
[19:15] Dew Point: 2° C
[19:15] Visibility: 62 miles
[19:15] METAR: KPBF 172253Z AUTO 30006KT 10SM CLR 26/09 A2985 RMK AO2 SLP105 T02560089KPBG 172253Z AUTO 34012KT 10SM CLR M10/M20 A2988 RMK AO2 SLP122 T11001200KPBH 172255Z AUTO 25004KT 10SM CLR 09/M10 A2992 RMK AO2 T00871096KPBI 172253Z 15012KT 10SM FEW040 23/14 A3001 RMK AO2 SLP162 T02330139KPBX 172255Z AUTO 04008KT 10SM -RA BKN010 BKN045 OVC070 11/11 A2977 RMK AO2 LTG DSNT NE AND W T01070107
[19:15] NOTE: Climb started
[19:15] View Mode: Spot Plane
[19:15] Flaps: Position 0
[19:15] GS: 97 knots
[19:15] TAS: 95 knots
[19:15] IAS: 96 knots
[19:15] VS: 834 fpm
[19:17] NOTE: TOC reached
[19:17] NOTE: Cruise started
[19:17] GS: 134 knots
[19:17] TAS: 137 knots
[19:17] IAS: 135 knots
[19:17] VS: 198 fpm
[19:17] FOB: 556 lbs
[19:17] Heading: 71°
[19:17] Pitch: 1°
[19:17] Bank: -15°
[19:17] Aircraft Weight: 4326.77 lbs
[19:32] Recovery: Flight Saved
[19:34] NOTE: TOD reached
[19:34] NOTE: Descent started
[19:34] GS: 120 knots
[19:34] TAS: 135 knots
[19:34] IAS: 134 knots
[19:34] VS: -489 fpm
[19:34] FOB: 479 lbs
[19:34] Heading: 73°
[19:34] Pitch: 1°
[19:34] Bank: 25°
[19:34] Aircraft Weight: 4249.36 lbs
[19:34] NOTE: On approach
[19:37] Flaps: Position 1
[19:37] GS: 136 knots
[19:37] TAS: 121 knots
[19:37] IAS: 120 knots
[19:37] VS: -365 fpm
[19:42] Flaps: Position 2
[19:42] GS: 69 knots
[19:42] TAS: 84 knots
[19:42] IAS: 85 knots
[19:42] VS: -217 fpm
[19:43] Autopilot: Disengaged
[19:43] AGL: 42 ft
[19:43] AMSL: 42 ft
[19:43] NOTE: ----- LANDED -----
[19:43] Landing Rate: -190.70 fpm
[19:43] GS: 34 knots
[19:43] TAS: 48 knots
[19:43] IAS: 48 knots
[19:43] VS: -193 fpm
[19:43] FOB: 460 lbs
[19:43] Heading: 113°
[19:43] Pitch: 6°
[19:43] Bank: 0°
[19:43] Aircraft Weight: 4230.20 lbs
[19:43] Nearest Airport: Z71
[19:43] Distance: 0.34 miles
[19:43] Runway: ???
[19:43] Ground Surface: Water
[19:43] Ground Condition: Snow
[19:43] NOTE: Weather Report
[19:43] Wind Heading: 74°
[19:43] Wind Speed: 15 knots
[19:43] OAT: 9° C
[19:43] TAT: 9° C
[19:43] Precipitation: None
[19:43] Dew Point: 1° C
[19:43] Visibility: 62 miles
[19:43] METAR: No METAR available for Z71.
[19:43] View Mode: Spot Plane
[19:44] NOTE: Taxi started
[19:44] Flaps: Position 0
[19:45] Engine 1: Stopped
[19:45] Light Data: Navigation OFF
[19:45] Light Data: Beacon OFF
[19:45] Light Data: Landing lights OFF
[19:45] Light Data: Taxi lights OFF
[19:45] Light Data: Strobe lights OFF
[19:45] Light Data: Instrument lights OFF
[19:45] Light Data: Recognition lights OFF
[19:45] Light Data: Wing lights OFF
[19:45] Light Data: Logo lights OFF
[19:45] Light Data: Cabin lights OFF
[19:45] Gate: n/a
[19:45] NOTE: Flight Completed
[19:45] FS Aircraft: DHC-2A N001MM New Misty Amphibian
[19:45] FS Model: DHC2
[19:45] FS Type: DeHavilland
[19:45] FOB: 459 lbs
[19:45] Fuel Used: 111 lbs
[19:45] Flight Time: 00:33:23
[19:45] Flight Time (Dawn): 00:00:00
[19:45] Flight Time (Day): 00:33:23
[19:45] Flight Time (Dusk): 00:00:00
[19:45] Flight Time (Night): 00:00:00
[19:45] Total Landings: 1
[19:45] MaxSim Rate: 0x
[19:45] Cigar Box - 1.1.2.0
[19:45] ----- Flight Closed -----

Route Map